sensor_id;sensor_type;location;lat;lon;timestamp;temperature;humidity
67279;DHT22;54193;53.746;10.058;2023-02-23T00:00:07;6.96;94.23
67279;DHT22;54193;53.746;10.058;2023-02-23T00:03:05;6.90;94.25
67279;DHT22;54193;53.746;10.058;2023-02-23T00:05:50;6.90;94.28
67279;DHT22;54193;53.746;10.058;2023-02-23T00:08:37;6.89;94.33
67279;DHT22;54193;53.746;10.058;2023-02-23T00:11:23;6.88;94.35
67279;DHT22;54193;53.746;10.058;2023-02-23T00:14:08;6.85;94.35
67279;DHT22;54193;53.746;10.058;2023-02-23T00:16:55;6.82;94.37
67279;DHT22;54193;53.746;10.058;2023-02-23T00:19:40;6.78;94.38
67279;DHT22;54193;53.746;10.058;2023-02-23T00:22:27;6.76;94.43
67279;DHT22;54193;53.746;10.058;2023-02-23T00:25:13;6.72;94.49
67279;DHT22;54193;53.746;10.058;2023-02-23T00:27:59;6.69;94.50
67279;DHT22;54193;53.746;10.058;2023-02-23T00:30:45;6.53;94.46
67279;DHT22;54193;53.746;10.058;2023-02-23T00:33:31;6.58;94.56
67279;DHT22;54193;53.746;10.058;2023-02-23T00:36:16;6.55;94.55
67279;DHT22;54193;53.746;10.058;2023-02-23T00:39:05;6.59;94.65
67279;DHT22;54193;53.746;10.058;2023-02-23T00:42:03;6.51;94.66
67279;DHT22;54193;53.746;10.058;2023-02-23T00:44:50;6.44;94.73
67279;DHT22;54193;53.746;10.058;2023-02-23T00:47:38;6.51;94.81
67279;DHT22;54193;53.746;10.058;2023-02-23T00:50:24;6.45;94.74
67279;DHT22;54193;53.746;10.058;2023-02-23T00:53:10;6.46;94.86
67279;DHT22;54193;53.746;10.058;2023-02-23T00:55:55;6.45;94.86
67279;DHT22;54193;53.746;10.058;2023-02-23T00:58:41;6.42;94.89
67279;DHT22;54193;53.746;10.058;2023-02-23T01:01:27;6.38;94.88
67279;DHT22;54193;53.746;10.058;2023-02-23T01:04:13;6.37;94.94
67279;DHT22;54193;53.746;10.058;2023-02-23T01:06:58;6.34;94.96
67279;DHT22;54193;53.746;10.058;2023-02-23T01:09:44;6.30;94.90
67279;DHT22;54193;53.746;10.058;2023-02-23T01:12:30;6.31;94.93
67279;DHT22;54193;53.746;10.058;2023-02-23T01:15:17;6.30;95.02
67279;DHT22;54193;53.746;10.058;2023-02-23T01:18:03;6.30;95.03
67279;DHT22;54193;53.746;10.058;2023-02-23T01:20:48;6.35;95.08
67279;DHT22;54193;53.746;10.058;2023-02-23T01:23:35;6.35;95.08
67279;DHT22;54193;53.746;10.058;2023-02-23T01:26:34;6.42;95.17
67279;DHT22;54193;53.746;10.058;2023-02-23T01:29:20;6.42;95.19
67279;DHT22;54193;53.746;10.058;2023-02-23T01:32:05;6.44;95.26
67279;DHT22;54193;53.746;10.058;2023-02-23T01:34:51;6.42;95.24
67279;DHT22;54193;53.746;10.058;2023-02-23T01:37:39;6.42;95.25
67279;DHT22;54193;53.746;10.058;2023-02-23T01:40:26;6.38;95.25
67279;DHT22;54193;53.746;10.058;2023-02-23T01:43:19;6.38;95.24
67279;DHT22;54193;53.746;10.058;2023-02-23T01:46:10;6.35;95.26
67279;DHT22;54193;53.746;10.058;2023-02-23T01:48:56;6.35;95.22
67279;DHT22;54193;53.746;10.058;2023-02-23T01:51:45;6.38;95.26
67279;DHT22;54193;53.746;10.058;2023-02-23T01:54:56;6.38;95.26
67279;DHT22;54193;53.746;10.058;2023-02-23T01:57:41;6.40;95.31
67279;DHT22;54193;53.746;10.058;2023-02-23T02:00:27;6.38;95.33
67279;DHT22;54193;53.746;10.058;2023-02-23T02:03:18;6.38;95.30
67279;DHT22;54193;53.746;10.058;2023-02-23T02:06:09;6.38;95.33
67279;DHT22;54193;53.746;10.058;2023-02-23T02:08:59;6.37;95.34
67279;DHT22;54193;53.746;10.058;2023-02-23T02:11:50;6.41;95.34
67279;DHT22;54193;53.746;10.058;2023-02-23T02:14:38;6.35;95.30
67279;DHT22;54193;53.746;10.058;2023-02-23T02:24:01;6.20;95.21
67279;DHT22;54193;53.746;10.058;2023-02-23T02:40:22;6.25;95.32
67279;DHT22;54193;53.746;10.058;2023-02-23T02:43:23;6.31;95.43
67279;DHT22;54193;53.746;10.058;2023-02-23T02:46:19;6.32;95.43
67279;DHT22;54193;53.746;10.058;2023-02-23T02:49:11;6.34;95.42
67279;DHT22;54193;53.746;10.058;2023-02-23T02:52:14;6.30;95.41
67279;DHT22;54193;53.746;10.058;2023-02-23T02:55:08;6.30;95.50
67279;DHT22;54193;53.746;10.058;2023-02-23T02:57:57;6.35;95.52
67279;DHT22;54193;53.746;10.058;2023-02-23T03:00:47;6.46;95.65
67279;DHT22;54193;53.746;10.058;2023-02-23T03:03:52;6.53;95.76
67279;DHT22;54193;53.746;10.058;2023-02-23T03:06:58;6.65;95.87
67279;DHT22;54193;53.746;10.058;2023-02-23T03:10:46;6.71;95.94
67279;DHT22;54193;53.746;10.058;2023-02-23T03:17:41;6.82;95.86
67279;DHT22;54193;53.746;10.058;2023-02-23T03:20:51;6.80;95.79
67279;DHT22;54193;53.746;10.058;2023-02-23T03:24:06;6.83;95.77
67279;DHT22;54193;53.746;10.058;2023-02-23T03:27:23;6.89;95.73
67279;DHT22;54193;53.746;10.058;2023-02-23T03:37:43;6.92;95.26
67279;DHT22;54193;53.746;10.058;2023-02-23T03:40:50;6.85;95.34
67279;DHT22;54193;53.746;10.058;2023-02-23T03:43:59;6.85;95.38
67279;DHT22;54193;53.746;10.058;2023-02-23T03:47:07;6.99;95.35
67279;DHT22;54193;53.746;10.058;2023-02-23T03:50:21;6.97;95.12
67279;DHT22;54193;53.746;10.058;2023-02-23T03:53:34;6.96;95.05
67279;DHT22;54193;53.746;10.058;2023-02-23T03:56:43;6.95;94.99
67279;DHT22;54193;53.746;10.058;2023-02-23T03:59:53;7.01;95.01
67279;DHT22;54193;53.746;10.058;2023-02-23T04:03:01;7.03;94.99
67279;DHT22;54193;53.746;10.058;2023-02-23T04:06:10;6.99;95.03
67279;DHT22;54193;53.746;10.058;2023-02-23T04:09:16;7.01;94.99
67279;DHT22;54193;53.746;10.058;2023-02-23T04:12:26;7.03;94.95
67279;DHT22;54193;53.746;10.058;2023-02-23T04:15:33;7.00;95.01
67279;DHT22;54193;53.746;10.058;2023-02-23T04:18:37;7.03;95.01
67279;DHT22;54193;53.746;10.058;2023-02-23T04:21:24;7.03;94.92
67279;DHT22;54193;53.746;10.058;2023-02-23T04:24:09;7.03;94.97
67279;DHT22;54193;53.746;10.058;2023-02-23T04:26:55;7.03;94.97
67279;DHT22;54193;53.746;10.058;2023-02-23T04:29:41;7.01;94.96
67279;DHT22;54193;53.746;10.058;2023-02-23T04:32:27;7.08;94.94
67279;DHT22;54193;53.746;10.058;2023-02-23T04:35:12;7.11;94.96
67279;DHT22;54193;53.746;10.058;2023-02-23T04:37:59;7.16;94.93
67279;DHT22;54193;53.746;10.058;2023-02-23T04:40:44;7.13;94.86
67279;DHT22;54193;53.746;10.058;2023-02-23T04:43:31;7.07;94.75
67279;DHT22;54193;53.746;10.058;2023-02-23T04:46:17;7.13;94.77
67279;DHT22;54193;53.746;10.058;2023-02-23T04:49:02;7.18;94.75
67279;DHT22;54193;53.746;10.058;2023-02-23T04:51:48;7.21;94.69
67279;DHT22;54193;53.746;10.058;2023-02-23T04:54:38;7.20;94.48
67279;DHT22;54193;53.746;10.058;2023-02-23T04:57:23;7.17;94.38
67279;DHT22;54193;53.746;10.058;2023-02-23T05:00:10;7.18;94.31
67279;DHT22;54193;53.746;10.058;2023-02-23T05:02:58;7.16;94.34
67279;DHT22;54193;53.746;10.058;2023-02-23T05:05:44;7.18;94.37
67279;DHT22;54193;53.746;10.058;2023-02-23T05:08:30;7.20;94.38
67279;DHT22;54193;53.746;10.058;2023-02-23T05:11:15;7.26;94.31
67279;DHT22;54193;53.746;10.058;2023-02-23T05:14:01;7.21;94.28
67279;DHT22;54193;53.746;10.058;2023-02-23T05:16:47;7.26;94.26
67279;DHT22;54193;53.746;10.058;2023-02-23T05:19:33;7.23;94.26
67279;DHT22;54193;53.746;10.058;2023-02-23T05:22:18;7.27;94.30
67279;DHT22;54193;53.746;10.058;2023-02-23T05:25:05;7.26;94.24
67279;DHT22;54193;53.746;10.058;2023-02-23T05:27:51;7.20;94.30
67279;DHT22;54193;53.746;10.058;2023-02-23T05:30:36;7.23;94.28
67279;DHT22;54193;53.746;10.058;2023-02-23T05:33:22;7.30;94.29
67279;DHT22;54193;53.746;10.058;2023-02-23T05:36:12;7.31;94.28
67279;DHT22;54193;53.746;10.058;2023-02-23T05:39:00;7.28;94.28
67279;DHT22;54193;53.746;10.058;2023-02-23T05:41:46;7.24;94.31
67279;DHT22;54193;53.746;10.058;2023-02-23T05:44:32;7.31;94.28
67279;DHT22;54193;53.746;10.058;2023-02-23T05:47:17;7.32;94.25
67279;DHT22;54193;53.746;10.058;2023-02-23T05:50:08;7.26;94.25
67279;DHT22;54193;53.746;10.058;2023-02-23T05:52:57;7.30;94.28
67279;DHT22;54193;53.746;10.058;2023-02-23T05:55:42;7.24;94.30
67279;DHT22;54193;53.746;10.058;2023-02-23T05:58:28;7.26;94.31
67279;DHT22;54193;53.746;10.058;2023-02-23T06:01:15;7.30;94.38
67279;DHT22;54193;53.746;10.058;2023-02-23T06:04:01;7.28;94.39
67279;DHT22;54193;53.746;10.058;2023-02-23T06:06:47;7.24;94.41
67279;DHT22;54193;53.746;10.058;2023-02-23T06:09:33;7.20;94.52
67279;DHT22;54193;53.746;10.058;2023-02-23T06:12:19;7.23;94.57
67279;DHT22;54193;53.746;10.058;2023-02-23T06:15:05;7.26;94.51
67279;DHT22;54193;53.746;10.058;2023-02-23T06:17:51;7.37;94.54
67279;DHT22;54193;53.746;10.058;2023-02-23T06:20:38;7.30;94.49
67279;DHT22;54193;53.746;10.058;2023-02-23T06:23:24;7.34;94.50
67279;DHT22;54193;53.746;10.058;2023-02-23T06:26:10;7.32;94.50
67279;DHT22;54193;53.746;10.058;2023-02-23T06:28:55;7.28;94.49
67279;DHT22;54193;53.746;10.058;2023-02-23T06:31:41;7.26;94.49
67279;DHT22;54193;53.746;10.058;2023-02-23T06:34:27;7.31;94.53
67279;DHT22;54193;53.746;10.058;2023-02-23T06:37:13;7.32;94.52
67279;DHT22;54193;53.746;10.058;2023-02-23T06:39:59;7.34;94.50
67279;DHT22;54193;53.746;10.058;2023-02-23T06:42:45;7.34;94.50
67279;DHT22;54193;53.746;10.058;2023-02-23T06:45:32;7.34;94.52
67279;DHT22;54193;53.746;10.058;2023-02-23T06:48:17;7.34;94.54
67279;DHT22;54193;53.746;10.058;2023-02-23T06:51:03;7.35;94.51
67279;DHT22;54193;53.746;10.058;2023-02-23T06:53:49;7.30;94.54
67279;DHT22;54193;53.746;10.058;2023-02-23T06:56:36;7.32;94.56
67279;DHT22;54193;53.746;10.058;2023-02-23T06:59:22;7.31;94.65
67279;DHT22;54193;53.746;10.058;2023-02-23T07:02:12;7.43;94.59
67279;DHT22;54193;53.746;10.058;2023-02-23T07:04:58;7.40;94.54
67279;DHT22;54193;53.746;10.058;2023-02-23T07:07:43;7.35;94.52
67279;DHT22;54193;53.746;10.058;2023-02-23T07:10:32;7.41;94.50
67279;DHT22;54193;53.746;10.058;2023-02-23T07:13:17;7.40;94.47
67279;DHT22;54193;53.746;10.058;2023-02-23T07:16:05;7.40;94.41
67279;DHT22;54193;53.746;10.058;2023-02-23T07:18:51;7.40;94.42
67279;DHT22;54193;53.746;10.058;2023-02-23T07:21:37;7.45;94.42
67279;DHT22;54193;53.746;10.058;2023-02-23T07:24:23;7.47;94.30
67279;DHT22;54193;53.746;10.058;2023-02-23T07:27:08;7.40;94.33
67279;DHT22;54193;53.746;10.058;2023-02-23T07:29:54;7.43;94.32
67279;DHT22;54193;53.746;10.058;2023-02-23T07:32:40;7.47;94.30
67279;DHT22;54193;53.746;10.058;2023-02-23T07:35:26;7.51;94.28
67279;DHT22;54193;53.746;10.058;2023-02-23T07:38:12;7.56;94.23
67279;DHT22;54193;53.746;10.058;2023-02-23T07:40:57;7.55;94.13
67279;DHT22;54193;53.746;10.058;2023-02-23T07:43:43;7.51;94.11
67279;DHT22;54193;53.746;10.058;2023-02-23T07:46:29;7.45;94.13
67279;DHT22;54193;53.746;10.058;2023-02-23T07:49:15;7.50;94.17
67279;DHT22;54193;53.746;10.058;2023-02-23T07:52:00;7.40;94.14
67279;DHT22;54193;53.746;10.058;2023-02-23T07:54:46;7.44;94.16
67279;DHT22;54193;53.746;10.058;2023-02-23T07:57:32;7.43;94.08
67279;DHT22;54193;53.746;10.058;2023-02-23T08:00:18;7.44;94.08
67279;DHT22;54193;53.746;10.058;2023-02-23T08:03:03;7.43;94.02
67279;DHT22;54193;53.746;10.058;2023-02-23T08:05:49;7.45;94.07
67279;DHT22;54193;53.746;10.058;2023-02-23T08:08:35;7.41;94.13
67279;DHT22;54193;53.746;10.058;2023-02-23T08:11:20;7.43;94.05
67279;DHT22;54193;53.746;10.058;2023-02-23T08:14:06;7.45;94.00
67279;DHT22;54193;53.746;10.058;2023-02-23T08:16:51;7.44;93.97
67279;DHT22;54193;53.746;10.058;2023-02-23T08:19:37;7.41;93.81
67279;DHT22;54193;53.746;10.058;2023-02-23T08:22:23;7.37;93.88
67279;DHT22;54193;53.746;10.058;2023-02-23T08:25:09;7.34;93.92
67279;DHT22;54193;53.746;10.058;2023-02-23T08:27:54;7.34;93.82
67279;DHT22;54193;53.746;10.058;2023-02-23T08:30:40;7.43;93.89
67279;DHT22;54193;53.746;10.058;2023-02-23T08:33:26;7.41;93.76
67279;DHT22;54193;53.746;10.058;2023-02-23T08:36:11;7.44;93.82
67279;DHT22;54193;53.746;10.058;2023-02-23T08:38:57;7.44;93.89
67279;DHT22;54193;53.746;10.058;2023-02-23T08:41:45;7.48;93.96
67279;DHT22;54193;53.746;10.058;2023-02-23T08:44:31;7.44;93.88
67279;DHT22;54193;53.746;10.058;2023-02-23T08:47:17;7.54;93.90
67279;DHT22;54193;53.746;10.058;2023-02-23T08:50:06;7.47;93.89
67279;DHT22;54193;53.746;10.058;2023-02-23T08:52:55;7.54;93.91
67279;DHT22;54193;53.746;10.058;2023-02-23T08:55:40;7.47;93.78
67279;DHT22;54193;53.746;10.058;2023-02-23T08:58:28;7.43;93.79
67279;DHT22;54193;53.746;10.058;2023-02-23T09:01:16;7.38;93.83
67279;DHT22;54193;53.746;10.058;2023-02-23T09:04:03;7.40;93.78
67279;DHT22;54193;53.746;10.058;2023-02-23T09:06:49;7.38;93.66
67279;DHT22;54193;53.746;10.058;2023-02-23T09:09:35;7.43;93.76
67279;DHT22;54193;53.746;10.058;2023-02-23T09:12:21;7.31;93.70
67279;DHT22;54193;53.746;10.058;2023-02-23T09:15:07;7.24;93.62
67279;DHT22;54193;53.746;10.058;2023-02-23T09:17:53;7.14;93.70
67279;DHT22;54193;53.746;10.058;2023-02-23T09:20:43;7.14;93.93
67279;DHT22;54193;53.746;10.058;2023-02-23T09:23:29;6.93;93.92
67279;DHT22;54193;53.746;10.058;2023-02-23T09:26:14;6.96;93.88
67279;DHT22;54193;53.746;10.058;2023-02-23T09:29:02;6.96;93.88
67279;DHT22;54193;53.746;10.058;2023-02-23T09:31:47;6.89;93.48
67279;DHT22;54193;53.746;10.058;2023-02-23T09:34:36;6.92;93.33
67279;DHT22;54193;53.746;10.058;2023-02-23T09:37:21;7.03;93.62
67279;DHT22;54193;53.746;10.058;2023-02-23T09:40:12;7.11;93.49
67279;DHT22;54193;53.746;10.058;2023-02-23T09:43:05;7.24;93.52
67279;DHT22;54193;53.746;10.058;2023-02-23T09:46:02;7.31;93.38
67279;DHT22;54193;53.746;10.058;2023-02-23T09:48:55;7.26;93.15
67279;DHT22;54193;53.746;10.058;2023-02-23T09:51:47;7.14;93.02
67279;DHT22;54193;53.746;10.058;2023-02-23T09:54:34;7.27;93.06
67279;DHT22;54193;53.746;10.058;2023-02-23T09:57:26;7.44;93.11
67279;DHT22;54193;53.746;10.058;2023-02-23T10:00:21;7.48;92.84
67279;DHT22;54193;53.746;10.058;2023-02-23T10:03:22;7.47;93.07
67279;DHT22;54193;53.746;10.058;2023-02-23T10:06:13;7.40;92.66
67279;DHT22;54193;53.746;10.058;2023-02-23T10:09:22;7.27;92.32
67279;DHT22;54193;53.746;10.058;2023-02-23T10:12:19;7.35;92.61
67279;DHT22;54193;53.746;10.058;2023-02-23T10:21:30;7.47;92.45
67279;DHT22;54193;53.746;10.058;2023-02-23T10:24:21;7.38;92.24
67279;DHT22;54193;53.746;10.058;2023-02-23T10:27:15;7.44;91.82
67279;DHT22;54193;53.746;10.058;2023-02-23T10:30:02;7.41;91.80
67279;DHT22;54193;53.746;10.058;2023-02-23T10:32:57;7.44;91.83
67279;DHT22;54193;53.746;10.058;2023-02-23T10:35:44;7.38;92.14
67279;DHT22;54193;53.746;10.058;2023-02-23T10:38:29;7.35;91.81
67279;DHT22;54193;53.746;10.058;2023-02-23T10:41:15;7.34;91.85
67279;DHT22;54193;53.746;10.058;2023-02-23T10:44:01;7.44;91.92
67279;DHT22;54193;53.746;10.058;2023-02-23T10:47:12;7.34;91.74
67279;DHT22;54193;53.746;10.058;2023-02-23T10:49:57;7.43;91.96
67279;DHT22;54193;53.746;10.058;2023-02-23T10:52:45;7.30;91.84
67279;DHT22;54193;53.746;10.058;2023-02-23T10:55:32;7.31;91.93
67279;DHT22;54193;53.746;10.058;2023-02-23T10:58:18;7.31;91.84
67279;DHT22;54193;53.746;10.058;2023-02-23T11:01:07;7.35;91.83
67279;DHT22;54193;53.746;10.058;2023-02-23T11:03:53;7.40;91.97
67279;DHT22;54193;53.746;10.058;2023-02-23T11:06:38;7.38;91.76
67279;DHT22;54193;53.746;10.058;2023-02-23T11:09:27;7.32;91.84
67279;DHT22;54193;53.746;10.058;2023-02-23T11:12:17;7.32;91.44
67279;DHT22;54193;53.746;10.058;2023-02-23T11:15:26;7.31;91.09
67279;DHT22;54193;53.746;10.058;2023-02-23T11:18:19;7.26;90.95
67279;DHT22;54193;53.746;10.058;2023-02-23T11:21:11;7.41;91.01
67279;DHT22;54193;53.746;10.058;2023-02-23T11:24:00;7.44;90.97
67279;DHT22;54193;53.746;10.058;2023-02-23T11:26:48;7.54;91.00
67279;DHT22;54193;53.746;10.058;2023-02-23T11:29:41;7.52;90.71
67279;DHT22;54193;53.746;10.058;2023-02-23T11:32:37;7.59;90.82
67279;DHT22;54193;53.746;10.058;2023-02-23T11:35:29;7.68;90.69
67279;DHT22;54193;53.746;10.058;2023-02-23T11:38:28;7.81;90.80
67279;DHT22;54193;53.746;10.058;2023-02-23T11:41:22;7.81;89.93
67279;DHT22;54193;53.746;10.058;2023-02-23T11:44:19;7.87;89.77
67279;DHT22;54193;53.746;10.058;2023-02-23T11:47:14;7.75;89.33
67279;DHT22;54193;53.746;10.058;2023-02-23T11:50:02;7.79;89.77
67279;DHT22;54193;53.746;10.058;2023-02-23T11:52:58;7.75;89.58
67279;DHT22;54193;53.746;10.058;2023-02-23T11:55:49;7.85;89.49
67279;DHT22;54193;53.746;10.058;2023-02-23T11:58:42;7.79;89.61
67279;DHT22;54193;53.746;10.058;2023-02-23T12:01:46;7.94;89.26
67279;DHT22;54193;53.746;10.058;2023-02-23T12:04:36;7.96;89.05
67279;DHT22;54193;53.746;10.058;2023-02-23T12:07:39;8.00;88.58
67279;DHT22;54193;53.746;10.058;2023-02-23T12:10:41;8.11;88.71
67279;DHT22;54193;53.746;10.058;2023-02-23T12:13:33;8.19;88.58
67279;DHT22;54193;53.746;10.058;2023-02-23T12:16:27;8.17;88.35
67279;DHT22;54193;53.746;10.058;2023-02-23T12:19:54;8.14;88.46
67279;DHT22;54193;53.746;10.058;2023-02-23T12:22:34;8.20;88.71
67279;DHT22;54193;53.746;10.058;2023-02-23T12:25:32;8.24;88.69
67279;DHT22;54193;53.746;10.058;2023-02-23T12:28:25;8.17;88.58
67279;DHT22;54193;53.746;10.058;2023-02-23T12:34:40;8.02;88.79
67279;DHT22;54193;53.746;10.058;2023-02-23T12:37:40;8.07;88.84
67279;DHT22;54193;53.746;10.058;2023-02-23T12:40:29;8.09;88.88
67279;DHT22;54193;53.746;10.058;2023-02-23T12:43:24;8.11;88.63
67279;DHT22;54193;53.746;10.058;2023-02-23T12:46:14;8.19;88.22
67279;DHT22;54193;53.746;10.058;2023-02-23T12:49:21;8.28;87.93
67279;DHT22;54193;53.746;10.058;2023-02-23T12:52:50;8.38;88.24
67279;DHT22;54193;53.746;10.058;2023-02-23T12:58:33;8.19;88.00
67279;DHT22;54193;53.746;10.058;2023-02-23T13:01:35;8.20;87.59
67279;DHT22;54193;53.746;10.058;2023-02-23T13:04:43;8.30;88.00
67279;DHT22;54193;53.746;10.058;2023-02-23T13:14:17;8.36;88.12
67279;DHT22;54193;53.746;10.058;2023-02-23T13:17:35;8.26;87.91
67279;DHT22;54193;53.746;10.058;2023-02-23T13:20:47;8.31;87.53
67279;DHT22;54193;53.746;10.058;2023-02-23T13:29:44;8.44;87.81
67279;DHT22;54193;53.746;10.058;2023-02-23T13:32:33;8.41;87.39
67279;DHT22;54193;53.746;10.058;2023-02-23T13:35:20;8.37;87.75
67279;DHT22;54193;53.746;10.058;2023-02-23T13:38:25;8.34;87.71
67279;DHT22;54193;53.746;10.058;2023-02-23T13:41:30;8.37;87.45
67279;DHT22;54193;53.746;10.058;2023-02-23T13:44:26;8.45;87.95
67279;DHT22;54193;53.746;10.058;2023-02-23T13:47:23;8.42;87.70
67279;DHT22;54193;53.746;10.058;2023-02-23T13:53:43;8.38;87.70
67279;DHT22;54193;53.746;10.058;2023-02-23T13:56:33;8.30;87.24
67279;DHT22;54193;53.746;10.058;2023-02-23T13:59:22;8.28;87.29
67279;DHT22;54193;53.746;10.058;2023-02-23T14:02:38;8.34;87.44
67279;DHT22;54193;53.746;10.058;2023-02-23T14:05:26;8.38;87.71
67279;DHT22;54193;53.746;10.058;2023-02-23T14:08:30;8.37;87.57
67279;DHT22;54193;53.746;10.058;2023-02-23T14:11:43;8.33;87.64
67279;DHT22;54193;53.746;10.058;2023-02-23T14:23:29;8.19;88.38
67279;DHT22;54193;53.746;10.058;2023-02-23T14:34:59;8.34;88.51
67279;DHT22;54193;53.746;10.058;2023-02-23T14:37:54;8.24;88.50
67279;DHT22;54193;53.746;10.058;2023-02-23T14:40:42;8.34;88.91
67279;DHT22;54193;53.746;10.058;2023-02-23T14:43:41;8.26;88.98
67279;DHT22;54193;53.746;10.058;2023-02-23T14:46:27;8.20;88.87
67279;DHT22;54193;53.746;10.058;2023-02-23T14:49:18;8.14;89.14
67279;DHT22;54193;53.746;10.058;2023-02-23T14:52:13;8.14;89.46
67279;DHT22;54193;53.746;10.058;2023-02-23T14:55:13;8.13;89.41
67279;DHT22;54193;53.746;10.058;2023-02-23T14:58:02;8.16;89.34
67279;DHT22;54193;53.746;10.058;2023-02-23T15:00:48;8.09;88.86
67279;DHT22;54193;53.746;10.058;2023-02-23T15:03:36;8.13;89.01
67279;DHT22;54193;53.746;10.058;2023-02-23T15:06:22;8.16;88.61
67279;DHT22;54193;53.746;10.058;2023-02-23T15:09:14;8.10;88.74
67279;DHT22;54193;53.746;10.058;2023-02-23T15:12:15;8.13;88.81
67279;DHT22;54193;53.746;10.058;2023-02-23T15:15:04;8.06;88.92
67279;DHT22;54193;53.746;10.058;2023-02-23T15:17:54;8.00;88.87
67279;DHT22;54193;53.746;10.058;2023-02-23T15:20:42;7.99;88.84
67279;DHT22;54193;53.746;10.058;2023-02-23T15:23:33;7.87;88.69
67279;DHT22;54193;53.746;10.058;2023-02-23T15:26:35;7.85;89.13
67279;DHT22;54193;53.746;10.058;2023-02-23T15:29:24;7.81;89.44
67279;DHT22;54193;53.746;10.058;2023-02-23T15:32:16;7.79;89.73
67279;DHT22;54193;53.746;10.058;2023-02-23T15:35:02;7.73;89.72
67279;DHT22;54193;53.746;10.058;2023-02-23T15:37:49;7.71;89.78
67279;DHT22;54193;53.746;10.058;2023-02-23T15:40:35;7.65;89.94
67279;DHT22;54193;53.746;10.058;2023-02-23T15:43:21;7.65;90.21
67279;DHT22;54193;53.746;10.058;2023-02-23T15:46:08;7.65;90.26
67279;DHT22;54193;53.746;10.058;2023-02-23T15:48:58;7.62;90.24
67279;DHT22;54193;53.746;10.058;2023-02-23T15:51:50;7.61;90.23
67279;DHT22;54193;53.746;10.058;2023-02-23T15:54:56;7.59;90.36
67279;DHT22;54193;53.746;10.058;2023-02-23T15:57:51;7.59;90.49
67279;DHT22;54193;53.746;10.058;2023-02-23T16:00:40;7.58;90.59
67279;DHT22;54193;53.746;10.058;2023-02-23T16:03:34;7.54;90.65
67279;DHT22;54193;53.746;10.058;2023-02-23T16:09:36;7.47;91.14
67279;DHT22;54193;53.746;10.058;2023-02-23T16:12:28;7.34;91.38
67279;DHT22;54193;53.746;10.058;2023-02-23T16:15:24;7.27;91.62
67279;DHT22;54193;53.746;10.058;2023-02-23T16:18:21;7.11;91.57
67279;DHT22;54193;53.746;10.058;2023-02-23T16:21:18;7.00;91.23
67279;DHT22;54193;53.746;10.058;2023-02-23T16:24:12;6.93;90.36
67279;DHT22;54193;53.746;10.058;2023-02-23T16:27:06;6.90;89.92
67279;DHT22;54193;53.746;10.058;2023-02-23T16:29:58;6.88;89.81
67279;DHT22;54193;53.746;10.058;2023-02-23T16:32:47;6.73;89.54
67279;DHT22;54193;53.746;10.058;2023-02-23T16:35:44;6.64;88.14
67279;DHT22;54193;53.746;10.058;2023-02-23T16:38:45;6.64;88.54
67279;DHT22;54193;53.746;10.058;2023-02-23T16:41:33;6.46;86.99
67279;DHT22;54193;53.746;10.058;2023-02-23T16:44:19;6.44;86.72
67279;DHT22;54193;53.746;10.058;2023-02-23T16:49:52;6.28;84.52
67279;DHT22;54193;53.746;10.058;2023-02-23T16:52:37;6.37;85.48
67279;DHT22;54193;53.746;10.058;2023-02-23T16:55:27;6.31;85.82
67279;DHT22;54193;53.746;10.058;2023-02-23T16:58:16;6.25;86.90
67279;DHT22;54193;53.746;10.058;2023-02-23T17:01:03;6.11;83.96
67279;DHT22;54193;53.746;10.058;2023-02-23T17:03:49;5.97;82.96
67279;DHT22;54193;53.746;10.058;2023-02-23T17:06:34;5.99;83.33
67279;DHT22;54193;53.746;10.058;2023-02-23T17:09:20;6.00;84.38
67279;DHT22;54193;53.746;10.058;2023-02-23T17:12:07;5.93;84.63
67279;DHT22;54193;53.746;10.058;2023-02-23T17:14:54;5.90;84.56
67279;DHT22;54193;53.746;10.058;2023-02-23T17:17:39;5.80;83.34
67279;DHT22;54193;53.746;10.058;2023-02-23T17:20:26;5.85;83.30
67279;DHT22;54193;53.746;10.058;2023-02-23T17:23:12;5.70;83.25
67279;DHT22;54193;53.746;10.058;2023-02-23T17:25:58;5.75;83.44
67279;DHT22;54193;53.746;10.058;2023-02-23T17:28:44;5.76;83.44
67279;DHT22;54193;53.746;10.058;2023-02-23T17:31:29;5.66;82.50
67279;DHT22;54193;53.746;10.058;2023-02-23T17:34:16;5.66;82.69
67279;DHT22;54193;53.746;10.058;2023-02-23T17:37:02;5.60;83.18
67279;DHT22;54193;53.746;10.058;2023-02-23T17:39:47;5.62;83.24
67279;DHT22;54193;53.746;10.058;2023-02-23T17:42:34;5.55;82.95
67279;DHT22;54193;53.746;10.058;2023-02-23T17:45:20;5.54;83.55
67279;DHT22;54193;53.746;10.058;2023-02-23T17:48:06;5.47;82.94
67279;DHT22;54193;53.746;10.058;2023-02-23T17:50:57;5.47;83.39
67279;DHT22;54193;53.746;10.058;2023-02-23T17:53:43;5.44;83.52
67279;DHT22;54193;53.746;10.058;2023-02-23T17:56:28;5.42;83.18
67279;DHT22;54193;53.746;10.058;2023-02-23T17:59:16;5.38;83.59
67279;DHT22;54193;53.746;10.058;2023-02-23T18:02:01;5.37;83.16
67279;DHT22;54193;53.746;10.058;2023-02-23T18:04:47;5.23;83.14
67279;DHT22;54193;53.746;10.058;2023-02-23T18:07:33;5.14;83.60
67279;DHT22;54193;53.746;10.058;2023-02-23T18:10:19;5.07;83.55
67279;DHT22;54193;53.746;10.058;2023-02-23T18:13:09;4.93;84.15
67279;DHT22;54193;53.746;10.058;2023-02-23T18:16:01;4.84;83.82
67279;DHT22;54193;53.746;10.058;2023-02-23T18:18:47;4.79;83.76
67279;DHT22;54193;53.746;10.058;2023-02-23T18:21:33;4.65;83.58
67279;DHT22;54193;53.746;10.058;2023-02-23T18:24:24;4.61;83.48
67279;DHT22;54193;53.746;10.058;2023-02-23T18:27:12;4.49;82.99
67279;DHT22;54193;53.746;10.058;2023-02-23T18:29:58;4.42;83.31
67279;DHT22;54193;53.746;10.058;2023-02-23T18:32:44;4.33;82.84
67279;DHT22;54193;53.746;10.058;2023-02-23T18:35:33;4.25;82.78
67279;DHT22;54193;53.746;10.058;2023-02-23T18:38:20;4.24;83.31
67279;DHT22;54193;53.746;10.058;2023-02-23T18:41:06;4.10;83.61
67279;DHT22;54193;53.746;10.058;2023-02-23T18:43:51;4.01;83.57
67279;DHT22;54193;53.746;10.058;2023-02-23T18:46:37;3.94;84.17
67279;DHT22;54193;53.746;10.058;2023-02-23T18:49:23;3.94;83.51
67279;DHT22;54193;53.746;10.058;2023-02-23T18:52:09;3.89;83.76
67279;DHT22;54193;53.746;10.058;2023-02-23T18:54:55;3.79;83.59
67279;DHT22;54193;53.746;10.058;2023-02-23T18:57:41;3.76;83.86
67279;DHT22;54193;53.746;10.058;2023-02-23T19:00:26;3.68;84.41
67279;DHT22;54193;53.746;10.058;2023-02-23T19:03:17;3.59;84.37
67279;DHT22;54193;53.746;10.058;2023-02-23T19:06:06;3.55;85.02
67279;DHT22;54193;53.746;10.058;2023-02-23T19:08:55;3.48;84.74
67279;DHT22;54193;53.746;10.058;2023-02-23T19:11:42;3.41;85.12
67279;DHT22;54193;53.746;10.058;2023-02-23T19:14:27;3.32;85.59
67279;DHT22;54193;53.746;10.058;2023-02-23T19:17:13;3.35;85.76
67279;DHT22;54193;53.746;10.058;2023-02-23T19:19:58;3.30;86.04